createdAt,value
2023-01-31T00:01:26.408Z,1.30
2023-01-31T00:03:52.920Z,0.73
2023-01-31T00:06:19.453Z,0.95
2023-01-31T00:08:45.890Z,1.15
2023-01-31T00:11:12.354Z,1.08
2023-01-31T00:13:39.076Z,0.90
2023-01-31T00:16:05.782Z,1.02
2023-01-31T00:18:32.359Z,0.90
2023-01-31T00:20:58.837Z,0.98
2023-01-31T00:23:25.330Z,0.95
2023-01-31T00:25:51.781Z,0.85
2023-01-31T00:28:18.236Z,0.80
2023-01-31T00:30:44.667Z,0.80
2023-01-31T00:33:11.149Z,0.80
2023-01-31T00:35:37.701Z,1.27
2023-01-31T00:38:04.646Z,1.00
2023-01-31T00:40:31.153Z,1.02
2023-01-31T00:42:57.688Z,0.63
2023-01-31T00:45:24.157Z,0.80
2023-01-31T00:47:50.603Z,0.82
2023-01-31T00:50:17.090Z,0.82
2023-01-31T00:52:43.595Z,1.08
2023-01-31T00:55:10.038Z,0.77
2023-01-31T00:57:37.049Z,0.98
2023-01-31T01:00:03.578Z,0.97
2023-01-31T01:02:30.017Z,1.00
2023-01-31T01:04:56.485Z,0.77
2023-01-31T01:07:22.927Z,1.02
2023-01-31T01:09:49.392Z,0.95
2023-01-31T01:12:15.887Z,0.70
2023-01-31T01:14:42.375Z,0.77
2023-01-31T01:17:09.339Z,1.00
2023-01-31T01:19:36.062Z,1.10
2023-01-31T01:22:02.612Z,0.88
2023-01-31T01:24:29.107Z,1.10
2023-01-31T01:26:55.602Z,0.77
2023-01-31T01:29:22.135Z,1.00
2023-01-31T01:31:48.702Z,1.02
2023-01-31T01:34:15.244Z,0.80
2023-01-31T01:36:41.911Z,0.80
2023-01-31T01:39:08.444Z,0.82
2023-01-31T01:41:34.932Z,1.05
2023-01-31T01:44:01.439Z,0.95
2023-01-31T01:46:28.397Z,1.27
2023-01-31T01:48:54.902Z,1.10
2023-01-31T01:51:21.387Z,1.00
2023-01-31T01:53:47.841Z,0.90
2023-01-31T01:56:14.325Z,1.00
2023-01-31T01:58:40.838Z,0.70
2023-01-31T02:01:07.383Z,1.02
2023-01-31T02:03:33.901Z,0.75
2023-01-31T02:06:00.391Z,0.90
2023-01-31T02:08:26.881Z,0.55
2023-01-31T02:10:53.382Z,0.77
2023-01-31T02:13:19.876Z,1.15
2023-01-31T02:15:46.333Z,0.60
2023-01-31T02:18:12.816Z,1.20
2023-01-31T02:20:39.263Z,0.80
2023-01-31T02:23:05.776Z,0.80
2023-01-31T02:25:32.260Z,0.80
2023-01-31T02:27:58.739Z,1.15
2023-01-31T02:30:25.251Z,0.63
2023-01-31T02:32:51.721Z,0.98
2023-01-31T02:35:18.738Z,0.80
2023-01-31T02:37:45.505Z,0.75
2023-01-31T02:40:11.939Z,0.82
2023-01-31T02:42:38.378Z,0.85
2023-01-31T02:45:04.860Z,0.70
2023-01-31T02:47:31.321Z,0.85
2023-01-31T02:49:57.758Z,0.60
2023-01-31T02:52:24.205Z,1.20
2023-01-31T02:54:50.665Z,1.10
2023-01-31T02:57:17.171Z,0.75
2023-01-31T02:59:43.669Z,0.77
2023-01-31T03:02:10.173Z,0.73
2023-01-31T03:04:36.933Z,0.85
2023-01-31T03:07:03.480Z,0.75
2023-01-31T03:09:30.025Z,0.68
2023-01-31T03:11:56.519Z,0.75
2023-01-31T03:14:23.006Z,0.80
2023-01-31T03:16:49.533Z,0.75
2023-01-31T03:19:16.113Z,0.80
2023-01-31T03:21:42.614Z,0.80
2023-01-31T03:24:09.122Z,0.70
2023-01-31T03:26:35.626Z,0.80
2023-01-31T03:29:02.131Z,0.75
2023-01-31T03:31:28.727Z,0.80
2023-01-31T03:33:55.285Z,0.68
2023-01-31T03:36:21.788Z,0.80
2023-01-31T03:38:48.276Z,0.90
2023-01-31T03:41:15.067Z,0.80
2023-01-31T03:43:41.706Z,0.80
2023-01-31T03:46:08.179Z,0.90
2023-01-31T03:48:34.675Z,0.90
2023-01-31T03:51:01.215Z,0.80
2023-01-31T03:53:27.707Z,0.75
2023-01-31T03:55:54.160Z,0.90
2023-01-31T03:58:20.727Z,0.55
2023-01-31T04:00:47.211Z,0.68
2023-01-31T04:03:13.846Z,0.60
2023-01-31T04:05:40.341Z,0.95
2023-01-31T04:08:06.840Z,0.68
2023-01-31T04:10:33.333Z,0.50
2023-01-31T04:12:59.797Z,0.75
2023-01-31T04:15:26.240Z,0.98
2023-01-31T04:17:52.726Z,0.70
2023-01-31T04:20:19.228Z,1.00
2023-01-31T04:22:45.694Z,1.05
2023-01-31T04:25:12.494Z,0.60
2023-01-31T04:27:39.026Z,0.60
2023-01-31T04:30:05.508Z,0.50
2023-01-31T04:32:31.994Z,0.80
2023-01-31T04:35:00.671Z,0.73
2023-01-31T04:37:27.832Z,0.70
2023-01-31T04:39:54.285Z,0.70
2023-01-31T04:42:20.810Z,0.95
2023-01-31T04:44:47.307Z,0.65
2023-01-31T04:47:13.801Z,0.88
2023-01-31T04:49:40.283Z,0.70
2023-01-31T04:52:07.373Z,1.05
2023-01-31T04:54:33.909Z,0.80
2023-01-31T04:57:00.417Z,0.90
2023-01-31T04:59:26.910Z,0.77
2023-01-31T05:01:53.372Z,0.60
2023-01-31T05:04:19.801Z,0.60
2023-01-31T05:06:46.298Z,0.70
2023-01-31T05:09:12.741Z,0.70
2023-01-31T05:11:39.250Z,0.75
2023-01-31T05:14:05.715Z,0.60
2023-01-31T05:16:32.657Z,1.10
2023-01-31T05:18:59.166Z,0.75
2023-01-31T05:21:25.606Z,0.77
2023-01-31T05:23:52.621Z,0.80
2023-01-31T05:26:19.122Z,0.70
2023-01-31T05:28:45.649Z,0.82
2023-01-31T05:31:12.411Z,0.68
2023-01-31T05:33:39.462Z,0.88
2023-01-31T05:36:06.052Z,0.73
2023-01-31T05:38:32.522Z,1.17
2023-01-31T05:40:58.980Z,0.65
2023-01-31T05:43:25.467Z,0.80
2023-01-31T05:45:52.055Z,0.70
2023-01-31T05:48:18.539Z,0.80
2023-01-31T05:50:45.028Z,0.80
2023-01-31T05:53:11.477Z,0.50
2023-01-31T05:55:37.957Z,0.90
2023-01-31T05:58:04.425Z,1.02
2023-01-31T06:00:31.046Z,0.88
2023-01-31T06:02:57.617Z,0.95
2023-01-31T06:05:24.147Z,0.90
2023-01-31T06:07:51.127Z,0.70
2023-01-31T06:10:20.135Z,1.20
2023-01-31T06:12:47.350Z,1.10
2023-01-31T06:15:13.801Z,1.52
2023-01-31T06:17:40.261Z,1.10
2023-01-31T06:20:06.736Z,1.20
2023-01-31T06:22:33.179Z,1.40
2023-01-31T06:24:59.663Z,1.42
2023-01-31T06:27:26.108Z,1.27
2023-01-31T06:29:52.625Z,1.63
2023-01-31T06:32:19.108Z,1.13
2023-01-31T06:34:45.581Z,1.33
2023-01-31T06:37:12.069Z,1.40
2023-01-31T06:39:38.590Z,1.40
2023-01-31T06:42:05.095Z,1.50
2023-01-31T06:44:31.656Z,1.52
2023-01-31T06:46:58.117Z,1.17
2023-01-31T06:49:24.567Z,1.70
2023-01-31T06:51:51.048Z,1.35
2023-01-31T06:54:17.491Z,1.20
2023-01-31T06:56:43.974Z,1.17
2023-01-31T06:59:10.460Z,1.25
2023-01-31T07:01:37.017Z,1.58
2023-01-31T07:04:03.548Z,1.30
2023-01-31T07:06:30.453Z,1.10
2023-01-31T07:08:57.032Z,1.52
2023-01-31T07:11:23.484Z,1.20
2023-01-31T07:13:49.987Z,1.50
2023-01-31T07:16:16.468Z,1.55
2023-01-31T07:18:43.001Z,1.60
2023-01-31T07:21:09.489Z,1.10
2023-01-31T07:23:36.005Z,1.60
2023-01-31T07:26:02.508Z,1.60
2023-01-31T07:28:28.996Z,1.40
2023-01-31T07:30:55.513Z,1.70
2023-01-31T07:33:22.063Z,1.70
2023-01-31T07:35:48.556Z,1.50
2023-01-31T07:38:15.008Z,1.40
2023-01-31T07:40:41.463Z,1.15
2023-01-31T07:43:07.916Z,1.23
2023-01-31T07:45:34.695Z,1.63
2023-01-31T07:48:01.490Z,1.83
2023-01-31T07:50:28.038Z,1.92
2023-01-31T07:52:54.557Z,2.00
2023-01-31T07:55:21.527Z,1.67
2023-01-31T07:57:48.552Z,1.92
2023-01-31T08:00:15.097Z,1.60
2023-01-31T08:02:42.080Z,2.20
2023-01-31T08:05:08.576Z,2.10
2023-01-31T08:07:35.055Z,2.03
2023-01-31T08:10:01.615Z,1.98
2023-01-31T08:12:28.080Z,1.90
2023-01-31T08:14:54.509Z,1.85
2023-01-31T08:17:20.996Z,1.58
2023-01-31T08:19:47.498Z,1.73
2023-01-31T08:22:14.480Z,1.60
2023-01-31T08:24:40.923Z,1.75
2023-01-31T08:27:07.368Z,1.33
2023-01-31T08:29:33.836Z,1.25
2023-01-31T08:32:00.452Z,1.67
2023-01-31T08:34:26.983Z,1.75
2023-01-31T08:36:53.494Z,1.38
2023-01-31T08:39:19.997Z,1.42
2023-01-31T08:41:46.528Z,1.70
2023-01-31T08:44:13.013Z,1.50
2023-01-31T08:46:39.571Z,1.60
2023-01-31T08:49:06.205Z,1.83
2023-01-31T08:51:32.686Z,1.10
2023-01-31T08:53:59.116Z,1.38
2023-01-31T08:56:25.627Z,1.48
2023-01-31T08:58:52.127Z,1.45
2023-01-31T09:01:18.675Z,1.40
2023-01-31T09:03:45.691Z,1.00
2023-01-31T09:06:12.346Z,1.40
2023-01-31T09:08:38.880Z,1.83
2023-01-31T09:11:05.363Z,1.55
2023-01-31T09:13:32.376Z,1.27
2023-01-31T09:15:58.858Z,1.20
2023-01-31T09:18:25.310Z,1.10
2023-01-31T09:20:51.808Z,1.30
2023-01-31T09:23:18.284Z,1.33
2023-01-31T09:25:47.776Z,2.42
2023-01-31T09:28:14.505Z,1.92
2023-01-31T09:30:41.060Z,1.40
2023-01-31T09:33:07.565Z,1.45
2023-01-31T09:35:34.252Z,1.30
2023-01-31T09:38:00.731Z,1.27
2023-01-31T09:40:27.262Z,1.08
2023-01-31T09:42:53.782Z,1.40
2023-01-31T09:45:20.699Z,1.42
2023-01-31T09:47:47.288Z,1.03
2023-01-31T09:50:14.204Z,1.15
2023-01-31T09:52:40.684Z,1.33
2023-01-31T09:55:07.176Z,1.02
2023-01-31T09:57:33.637Z,1.40
2023-01-31T10:00:00.137Z,1.35
2023-01-31T10:02:26.656Z,1.15
2023-01-31T10:04:53.106Z,1.38
2023-01-31T10:07:19.587Z,1.40
2023-01-31T10:09:46.027Z,1.08
2023-01-31T10:12:12.505Z,1.25
2023-01-31T10:14:38.952Z,1.10
2023-01-31T10:17:05.428Z,1.60
2023-01-31T10:19:31.899Z,1.40
2023-01-31T10:21:58.356Z,1.13
2023-01-31T10:24:25.331Z,1.23
2023-01-31T10:26:51.872Z,1.10
2023-01-31T10:29:18.365Z,1.00
2023-01-31T10:31:44.914Z,1.20
2023-01-31T10:34:11.498Z,1.05
2023-01-31T10:36:37.978Z,1.10
2023-01-31T10:39:04.471Z,1.10
2023-01-31T10:41:31.251Z,0.95
2023-01-31T10:43:57.960Z,0.90
2023-01-31T10:46:24.446Z,0.75
2023-01-31T10:48:50.907Z,1.13
2023-01-31T10:51:17.406Z,0.95
2023-01-31T10:53:44.018Z,1.02
2023-01-31T10:56:10.531Z,0.90
2023-01-31T10:58:37.001Z,1.20
2023-01-31T11:01:04.084Z,1.00
2023-01-31T11:03:31.104Z,1.17
2023-01-31T11:05:57.595Z,0.90
2023-01-31T11:08:24.059Z,1.45
2023-01-31T11:10:50.517Z,1.10
2023-01-31T11:13:16.967Z,1.20
2023-01-31T11:15:43.420Z,0.95
2023-01-31T11:18:09.917Z,1.10
2023-01-31T11:20:36.407Z,1.42
2023-01-31T11:23:02.923Z,0.70
2023-01-31T11:25:29.362Z,1.08
2023-01-31T11:27:55.873Z,1.00
2023-01-31T11:30:22.774Z,1.15
2023-01-31T11:32:49.438Z,1.20
2023-01-31T11:35:15.884Z,0.98
2023-01-31T11:37:42.328Z,1.05
2023-01-31T11:40:08.771Z,0.95
2023-01-31T11:42:35.205Z,1.30
2023-01-31T11:45:01.702Z,1.15
2023-01-31T11:47:28.155Z,1.15
2023-01-31T11:49:54.625Z,0.98
2023-01-31T11:52:21.107Z,0.80
2023-01-31T11:54:47.611Z,0.98
2023-01-31T11:57:14.048Z,1.20
2023-01-31T11:59:40.527Z,1.25
2023-01-31T12:02:07.001Z,1.25
2023-01-31T12:04:33.512Z,1.27
2023-01-31T12:07:00.502Z,1.10
2023-01-31T12:09:27.011Z,0.85
2023-01-31T12:11:53.571Z,0.60
2023-01-31T12:14:20.103Z,0.88
2023-01-31T12:16:46.617Z,1.27
2023-01-31T12:19:13.129Z,0.90
2023-01-31T12:21:39.676Z,1.13
2023-01-31T12:24:06.180Z,0.85
2023-01-31T12:26:32.771Z,0.90
2023-01-31T12:28:59.264Z,0.88
2023-01-31T12:31:25.750Z,0.98
2023-01-31T12:33:52.680Z,0.77
2023-01-31T12:36:19.169Z,1.17
2023-01-31T12:38:45.664Z,0.80
2023-01-31T12:41:12.159Z,0.80
2023-01-31T12:43:38.608Z,1.23
2023-01-31T12:46:05.144Z,0.95
2023-01-31T12:48:31.653Z,0.70
2023-01-31T12:50:58.113Z,0.80
2023-01-31T12:53:24.597Z,0.90
2023-01-31T12:55:51.107Z,1.13
2023-01-31T12:58:17.629Z,0.57
2023-01-31T13:00:44.123Z,0.88
2023-01-31T13:03:10.663Z,1.23
2023-01-31T13:05:37.306Z,1.15
2023-01-31T13:08:03.784Z,0.63
2023-01-31T13:10:30.266Z,0.75
2023-01-31T13:12:56.724Z,0.63
2023-01-31T13:15:23.405Z,0.88
2023-01-31T13:17:50.032Z,0.77
2023-01-31T13:20:16.540Z,0.80
2023-01-31T13:22:43.046Z,1.08
2023-01-31T13:25:09.513Z,0.82
2023-01-31T13:27:38.169Z,0.77
2023-01-31T13:30:04.779Z,0.70
2023-01-31T13:32:31.225Z,0.82
2023-01-31T13:34:57.686Z,0.93
2023-01-31T13:37:24.175Z,1.08
2023-01-31T13:39:51.126Z,0.63
2023-01-31T13:42:17.616Z,0.87
2023-01-31T13:44:44.068Z,1.00
2023-01-31T13:47:10.539Z,0.63
2023-01-31T13:49:37.475Z,0.90
2023-01-31T13:52:03.975Z,0.70
2023-01-31T13:54:30.476Z,1.13
2023-01-31T13:56:56.921Z,0.63
2023-01-31T13:59:23.404Z,1.17
2023-01-31T14:01:49.992Z,0.80
2023-01-31T14:04:16.609Z,1.05
2023-01-31T14:06:44.235Z,0.98
2023-01-31T14:09:10.697Z,1.02
2023-01-31T14:11:37.184Z,0.80
2023-01-31T14:14:03.654Z,0.80
2023-01-31T14:16:30.141Z,0.85
2023-01-31T14:18:56.684Z,0.80
2023-01-31T14:21:23.146Z,0.95
2023-01-31T14:23:49.599Z,0.90
2023-01-31T14:26:16.086Z,0.90
2023-01-31T14:28:43.025Z,1.08
2023-01-31T14:31:09.579Z,0.93
2023-01-31T14:33:36.064Z,0.77
2023-01-31T14:36:02.523Z,0.88
2023-01-31T14:38:29.007Z,0.90
2023-01-31T14:40:55.537Z,1.05
2023-01-31T14:43:22.039Z,0.70
2023-01-31T14:45:48.553Z,0.65
2023-01-31T14:48:15.028Z,0.88
2023-01-31T14:50:41.522Z,1.30
2023-01-31T14:53:08.001Z,0.70
2023-01-31T14:55:34.478Z,1.13
2023-01-31T14:58:00.962Z,1.10
2023-01-31T15:00:27.432Z,1.35
2023-01-31T15:02:53.971Z,1.20
2023-01-31T15:05:20.709Z,1.67
2023-01-31T15:07:47.281Z,1.10
2023-01-31T15:10:13.767Z,1.20
2023-01-31T15:12:40.206Z,1.40
2023-01-31T15:15:06.696Z,1.80
2023-01-31T15:17:37.641Z,1.40
2023-01-31T15:20:05.681Z,1.33
2023-01-31T15:22:32.154Z,1.70
2023-01-31T15:24:58.646Z,1.38
2023-01-31T15:27:25.141Z,1.60
2023-01-31T15:29:51.653Z,1.15
2023-01-31T15:32:18.110Z,1.20
2023-01-31T15:34:44.542Z,1.25
2023-01-31T15:37:10.997Z,1.20
2023-01-31T15:39:37.455Z,1.10
2023-01-31T15:42:03.976Z,1.25
2023-01-31T15:44:30.411Z,1.30
2023-01-31T15:46:56.856Z,1.58
2023-01-31T15:49:38.112Z,1.42
2023-01-31T15:52:05.857Z,1.88
2023-01-31T15:54:32.349Z,1.20
2023-01-31T15:56:58.834Z,1.70
2023-01-31T15:59:25.318Z,1.58
2023-01-31T16:01:51.810Z,0.98
2023-01-31T16:04:18.792Z,1.58
2023-01-31T16:06:45.245Z,1.30
2023-01-31T16:09:11.686Z,1.50
2023-01-31T16:11:38.111Z,1.30
2023-01-31T16:14:04.585Z,1.42
2023-01-31T16:16:31.102Z,1.25
2023-01-31T16:18:57.621Z,1.38
2023-01-31T16:21:24.072Z,1.08
2023-01-31T16:23:51.741Z,1.48
2023-01-31T16:26:18.238Z,1.40
2023-01-31T16:28:44.675Z,1.25
2023-01-31T16:31:11.271Z,1.40
2023-01-31T16:33:37.865Z,1.42
2023-01-31T16:36:13.674Z,1.65
2023-01-31T16:41:08.652Z,1.20
2023-01-31T16:43:35.139Z,2.33
2023-01-31T16:46:01.638Z,1.20
2023-01-31T16:48:28.169Z,1.63
2023-01-31T16:50:54.621Z,1.40
2023-01-31T16:53:21.106Z,1.13
2023-01-31T16:55:47.597Z,1.35
2023-01-31T16:58:14.053Z,1.65
2023-01-31T17:00:40.528Z,1.67
2023-01-31T17:03:07.529Z,1.65
2023-01-31T17:05:34.012Z,1.77
2023-01-31T17:08:00.485Z,1.40
2023-01-31T17:10:26.957Z,1.83
2023-01-31T17:12:53.455Z,2.10
2023-01-31T17:15:20.211Z,1.50
2023-01-31T17:17:46.880Z,1.37
2023-01-31T17:20:13.367Z,1.65
2023-01-31T17:22:40.280Z,1.25
2023-01-31T17:25:06.803Z,1.30
2023-01-31T17:27:33.332Z,1.25
2023-01-31T17:29:59.873Z,1.58
2023-01-31T17:32:26.312Z,1.70
2023-01-31T17:34:52.806Z,1.58
2023-01-31T17:37:30.135Z,1.67
2023-01-31T17:39:58.037Z,1.33
2023-01-31T17:42:24.537Z,1.40
2023-01-31T17:44:51.008Z,1.33
2023-01-31T17:47:17.460Z,1.45
2023-01-31T17:49:45.139Z,1.58
2023-01-31T17:54:38.323Z,1.73
2023-01-31T17:57:04.844Z,1.77
2023-01-31T17:59:31.358Z,1.40
2023-01-31T18:01:57.902Z,1.33
2023-01-31T18:04:24.491Z,1.70
2023-01-31T18:06:51.097Z,1.25
2023-01-31T18:09:17.587Z,1.70
2023-01-31T18:11:44.038Z,1.85
2023-01-31T18:14:10.524Z,1.30
2023-01-31T18:16:36.995Z,1.38
2023-01-31T18:19:03.454Z,1.65
2023-01-31T18:21:29.936Z,1.40
2023-01-31T18:23:56.399Z,1.27
2023-01-31T18:26:22.937Z,1.75
2023-01-31T18:28:49.413Z,1.27
2023-01-31T18:31:16.075Z,1.48
2023-01-31T18:33:42.607Z,1.35
2023-01-31T18:36:09.085Z,1.58
2023-01-31T18:38:35.548Z,1.65
2023-01-31T18:41:01.986Z,1.42
2023-01-31T18:43:28.449Z,1.90
2023-01-31T18:45:54.932Z,1.50
2023-01-31T18:51:11.926Z,1.40
2023-01-31T18:53:38.435Z,1.15
2023-01-31T18:56:05.824Z,1.70
2023-01-31T18:58:32.440Z,1.40
2023-01-31T19:00:58.906Z,2.03
2023-01-31T19:03:25.402Z,1.80
2023-01-31T19:05:51.890Z,1.73
2023-01-31T19:08:18.339Z,1.50
2023-01-31T19:10:44.790Z,1.58
2023-01-31T19:13:11.259Z,1.90
2023-01-31T19:15:37.727Z,1.30
2023-01-31T19:18:04.193Z,1.52
2023-01-31T19:20:31.196Z,1.38
2023-01-31T19:22:57.664Z,1.33
2023-01-31T19:25:24.092Z,1.25
2023-01-31T19:27:50.583Z,1.25
2023-01-31T19:30:17.021Z,1.33
2023-01-31T19:32:43.575Z,1.23
2023-01-31T19:35:10.087Z,1.38
2023-01-31T19:37:36.545Z,1.30
2023-01-31T19:40:03.041Z,1.58
2023-01-31T19:42:29.516Z,1.70
2023-01-31T19:44:56.006Z,1.48
2023-01-31T19:47:22.456Z,1.80
2023-01-31T19:49:48.941Z,1.75
2023-01-31T19:52:15.395Z,1.67
2023-01-31T19:54:41.833Z,1.10
2023-01-31T19:57:08.297Z,1.48
2023-01-31T19:59:34.745Z,1.73
2023-01-31T20:02:01.206Z,1.38
2023-01-31T20:04:27.728Z,1.80
2023-01-31T20:06:54.168Z,1.50
2023-01-31T20:09:20.639Z,1.38
2023-01-31T20:11:47.129Z,1.48
2023-01-31T20:14:13.614Z,1.40
2023-01-31T20:16:40.159Z,1.40
2023-01-31T20:19:06.686Z,1.25
2023-01-31T20:21:33.155Z,1.33
2023-01-31T20:23:59.593Z,1.30
2023-01-31T20:26:26.058Z,1.48
2023-01-31T20:28:52.614Z,1.70
2023-01-31T20:31:19.172Z,1.40
2023-01-31T20:33:45.770Z,1.33
2023-01-31T20:36:12.213Z,1.27
2023-01-31T20:38:38.675Z,1.38
2023-01-31T20:41:05.216Z,1.42
2023-01-31T20:43:31.664Z,1.45
2023-01-31T20:45:58.162Z,1.35
2023-01-31T20:48:24.629Z,1.55
2023-01-31T20:50:51.111Z,1.42
2023-01-31T20:53:17.615Z,1.20
2023-01-31T20:55:44.080Z,1.20
2023-01-31T20:58:10.517Z,1.25
2023-01-31T21:00:36.991Z,1.48
2023-01-31T21:03:03.441Z,1.40
2023-01-31T21:05:29.911Z,1.58
2023-01-31T21:07:56.372Z,1.35
2023-01-31T21:10:23.061Z,1.42
2023-01-31T21:12:49.673Z,1.65
2023-01-31T21:15:16.167Z,1.33
2023-01-31T21:17:42.678Z,1.38
2023-01-31T21:20:09.163Z,1.42
2023-01-31T21:22:35.667Z,1.00
2023-01-31T21:25:02.159Z,1.38
2023-01-31T21:27:28.815Z,1.27
2023-01-31T21:29:55.477Z,1.63
2023-01-31T21:32:21.972Z,1.70
2023-01-31T21:34:48.488Z,1.50
2023-01-31T21:37:14.939Z,1.30
2023-01-31T21:39:41.403Z,1.52
2023-01-31T21:42:07.893Z,1.38
2023-01-31T21:44:34.369Z,1.30
2023-01-31T21:47:00.870Z,1.40
2023-01-31T21:49:27.374Z,1.52
2023-01-31T21:51:53.819Z,1.55
2023-01-31T21:54:20.272Z,1.60
2023-01-31T21:56:46.725Z,1.55
2023-01-31T21:59:13.199Z,1.58
2023-01-31T22:01:39.704Z,1.27
2023-01-31T22:04:06.207Z,1.42
2023-01-31T22:06:32.659Z,1.00
2023-01-31T22:08:59.109Z,1.20
2023-01-31T22:11:25.569Z,1.08
2023-01-31T22:13:54.789Z,1.10
2023-01-31T22:16:22.378Z,1.58
2023-01-31T22:18:48.898Z,1.55
2023-01-31T22:21:15.378Z,1.40
2023-01-31T22:23:41.880Z,1.00
2023-01-31T22:26:08.331Z,1.50
2023-01-31T22:28:34.856Z,1.08
2023-01-31T22:31:01.408Z,1.25
2023-01-31T22:33:27.974Z,1.15
2023-01-31T22:35:54.438Z,0.98
2023-01-31T22:38:20.920Z,1.33
2023-01-31T22:40:47.419Z,1.40
2023-01-31T22:43:13.908Z,1.20
2023-01-31T22:45:40.377Z,1.30
2023-01-31T22:48:06.867Z,1.23
2023-01-31T22:50:33.350Z,1.48
2023-01-31T22:52:59.846Z,1.15
2023-01-31T22:55:26.340Z,1.33
2023-01-31T22:57:52.788Z,1.00
2023-01-31T23:00:19.451Z,1.08
2023-01-31T23:02:46.088Z,1.33
2023-01-31T23:05:12.519Z,1.10
2023-01-31T23:07:38.979Z,1.30
2023-01-31T23:10:05.416Z,1.00
2023-01-31T23:12:31.845Z,1.10
2023-01-31T23:14:58.331Z,0.98
2023-01-31T23:17:24.808Z,1.10
2023-01-31T23:19:51.302Z,0.88
2023-01-31T23:22:17.803Z,0.95
2023-01-31T23:24:44.290Z,0.80
2023-01-31T23:27:10.770Z,1.38
2023-01-31T23:29:37.256Z,0.98
2023-01-31T23:32:03.740Z,1.35
2023-01-31T23:34:30.197Z,1.20
2023-01-31T23:36:56.672Z,0.98
2023-01-31T23:39:23.176Z,1.10
2023-01-31T23:41:49.675Z,1.27
2023-01-31T23:44:16.118Z,1.15
2023-01-31T23:46:42.554Z,0.95
2023-01-31T23:49:08.990Z,1.40
2023-01-31T23:51:35.424Z,0.85
2023-01-31T23:54:01.871Z,0.90
2023-01-31T23:56:28.358Z,0.98
2023-01-31T23:58:54.808Z,1.00
